sensor_id;sensor_type;location;lat;lon;timestamp;pressure;altitude;pressure_sealevel;temperature;humidity
37304;BME280;23188;51.188;16.374;2023-06-14T00:00:11;100289.37;;;11.74;95.08
37304;BME280;23188;51.188;16.374;2023-06-14T00:04:35;100281.70;;;11.66;94.02
37304;BME280;23188;51.188;16.374;2023-06-14T00:08:39;100282.89;;;11.52;94.60
37304;BME280;23188;51.188;16.374;2023-06-14T00:13:11;100288.10;;;11.43;94.56
37304;BME280;23188;51.188;16.374;2023-06-14T00:17:14;100289.17;;;11.40;95.05
37304;BME280;23188;51.188;16.374;2023-06-14T00:21:19;100287.95;;;11.42;96.33
37304;BME280;23188;51.188;16.374;2023-06-14T00:25:23;100285.71;;;11.42;97.23
37304;BME280;23188;51.188;16.374;2023-06-14T00:29:31;100283.88;;;11.42;97.61
37304;BME280;23188;51.188;16.374;2023-06-14T00:33:34;100283.60;;;11.46;97.00
37304;BME280;23188;51.188;16.374;2023-06-14T00:37:38;100284.88;;;11.43;95.05
37304;BME280;23188;51.188;16.374;2023-06-14T00:46:41;100284.73;;;11.24;94.25
37304;BME280;23188;51.188;16.374;2023-06-14T00:50:47;100280.24;;;11.16;94.26
37304;BME280;23188;51.188;16.374;2023-06-14T00:54:51;100279.59;;;11.09;94.15
37304;BME280;23188;51.188;16.374;2023-06-14T00:58:56;100273.73;;;11.02;94.27
37304;BME280;23188;51.188;16.374;2023-06-14T01:03:01;100270.23;;;10.95;96.30
37304;BME280;23188;51.188;16.374;2023-06-14T01:11:50;100278.09;;;10.92;98.98
37304;BME280;23188;51.188;16.374;2023-06-14T01:16:07;100286.54;;;10.95;99.38
37304;BME280;23188;51.188;16.374;2023-06-14T01:20:14;100290.95;;;11.00;99.25
37304;BME280;23188;51.188;16.374;2023-06-14T01:24:20;100294.05;;;10.95;97.51
37304;BME280;23188;51.188;16.374;2023-06-14T01:28:27;100299.23;;;10.83;98.02
37304;BME280;23188;51.188;16.374;2023-06-14T01:32:35;100304.77;;;10.70;98.79
37304;BME280;23188;51.188;16.374;2023-06-14T01:36:41;100305.55;;;10.65;98.85
37304;BME280;23188;51.188;16.374;2023-06-14T01:40:46;100302.48;;;10.61;97.35
37304;BME280;23188;51.188;16.374;2023-06-14T01:44:51;100301.54;;;10.55;97.12
37304;BME280;23188;51.188;16.374;2023-06-14T01:48:56;100304.69;;;10.51;99.23
37304;BME280;23188;51.188;16.374;2023-06-14T01:53:00;100300.23;;;10.47;99.28
37304;BME280;23188;51.188;16.374;2023-06-14T01:57:03;100297.84;;;10.41;98.07
37304;BME280;23188;51.188;16.374;2023-06-14T02:01:06;100296.63;;;10.36;97.62
37304;BME280;23188;51.188;16.374;2023-06-14T02:05:10;100294.21;;;10.33;99.40
37304;BME280;23188;51.188;16.374;2023-06-14T02:09:13;100288.17;;;10.33;98.73
37304;BME280;23188;51.188;16.374;2023-06-14T02:13:16;100289.84;;;10.28;96.80
37304;BME280;23188;51.188;16.374;2023-06-14T02:17:20;100290.40;;;10.24;96.42
37304;BME280;23188;51.188;16.374;2023-06-14T02:21:23;100291.20;;;10.15;95.85
37304;BME280;23188;51.188;16.374;2023-06-14T02:25:26;100296.23;;;10.08;95.65
37304;BME280;23188;51.188;16.374;2023-06-14T02:29:30;100295.61;;;10.02;96.28
37304;BME280;23188;51.188;16.374;2023-06-14T02:33:34;100296.11;;;9.94;96.36
37304;BME280;23188;51.188;16.374;2023-06-14T02:37:37;100295.91;;;9.85;95.83
37304;BME280;23188;51.188;16.374;2023-06-14T02:41:40;100296.27;;;9.78;96.03
37304;BME280;23188;51.188;16.374;2023-06-14T02:45:43;100309.57;;;9.73;96.90
37304;BME280;23188;51.188;16.374;2023-06-14T02:49:46;100307.30;;;9.61;96.00
37304;BME280;23188;51.188;16.374;2023-06-14T02:53:49;100308.54;;;9.52;96.59
37304;BME280;23188;51.188;16.374;2023-06-14T02:57:53;100312.04;;;9.48;97.51
37304;BME280;23188;51.188;16.374;2023-06-14T03:01:57;100310.83;;;9.52;97.60
37304;BME280;23188;51.188;16.374;2023-06-14T03:06:01;100305.54;;;9.49;96.59
37304;BME280;23188;51.188;16.374;2023-06-14T03:10:08;100305.20;;;9.45;97.20
37304;BME280;23188;51.188;16.374;2023-06-14T03:14:12;100303.09;;;9.45;98.64
37304;BME280;23188;51.188;16.374;2023-06-14T03:18:16;100306.52;;;9.37;100.00
37304;BME280;23188;51.188;16.374;2023-06-14T03:22:19;100313.73;;;9.35;100.00
37304;BME280;23188;51.188;16.374;2023-06-14T03:26:24;100317.65;;;9.46;100.00
37304;BME280;23188;51.188;16.374;2023-06-14T03:30:34;100298.30;;;9.63;100.00
37304;BME280;23188;51.188;16.374;2023-06-14T03:34:37;100285.48;;;9.75;100.00
37304;BME280;23188;51.188;16.374;2023-06-14T03:38:41;100288.13;;;9.80;100.00
37304;BME280;23188;51.188;16.374;2023-06-14T03:42:54;100286.04;;;9.89;100.00
37304;BME280;23188;51.188;16.374;2023-06-14T03:46:57;100284.04;;;9.96;100.00
37304;BME280;23188;51.188;16.374;2023-06-14T03:51:00;100285.15;;;10.00;100.00
37304;BME280;23188;51.188;16.374;2023-06-14T03:55:05;100284.14;;;10.10;100.00
37304;BME280;23188;51.188;16.374;2023-06-14T03:59:11;100291.48;;;10.25;100.00
37304;BME280;23188;51.188;16.374;2023-06-14T04:03:14;100296.36;;;10.51;100.00
37304;BME280;23188;51.188;16.374;2023-06-14T04:07:23;100293.39;;;10.79;100.00
37304;BME280;23188;51.188;16.374;2023-06-14T04:11:26;100302.12;;;11.06;100.00
37304;BME280;23188;51.188;16.374;2023-06-14T04:20:27;100308.52;;;11.45;100.00
37304;BME280;23188;51.188;16.374;2023-06-14T04:24:31;100318.77;;;11.58;100.00
37304;BME280;23188;51.188;16.374;2023-06-14T04:28:35;100319.59;;;11.75;100.00
37304;BME280;23188;51.188;16.374;2023-06-14T04:32:44;100317.42;;;11.82;100.00
37304;BME280;23188;51.188;16.374;2023-06-14T04:36:48;100320.02;;;11.91;100.00
37304;BME280;23188;51.188;16.374;2023-06-14T04:40:52;100314.37;;;11.99;100.00
37304;BME280;23188;51.188;16.374;2023-06-14T04:44:56;100313.43;;;12.39;100.00
37304;BME280;23188;51.188;16.374;2023-06-14T04:48:59;100311.17;;;13.51;100.00
37304;BME280;23188;51.188;16.374;2023-06-14T04:53:05;100308.73;;;14.42;99.78
37304;BME280;23188;51.188;16.374;2023-06-14T04:57:11;100313.46;;;14.54;95.53
37304;BME280;23188;51.188;16.374;2023-06-14T05:01:20;100325.96;;;14.13;93.82
37304;BME280;23188;51.188;16.374;2023-06-14T05:05:24;100327.04;;;13.75;97.87
37304;BME280;23188;51.188;16.374;2023-06-14T05:09:27;100323.19;;;13.67;100.00
37304;BME280;23188;51.188;16.374;2023-06-14T05:13:30;100321.36;;;13.46;100.00
37304;BME280;23188;51.188;16.374;2023-06-14T05:17:35;100324.07;;;13.42;100.00
37304;BME280;23188;51.188;16.374;2023-06-14T05:21:39;100321.77;;;13.69;100.00
37304;BME280;23188;51.188;16.374;2023-06-14T05:25:45;100320.27;;;13.73;100.00
37304;BME280;23188;51.188;16.374;2023-06-14T05:29:49;100328.63;;;13.96;100.00
37304;BME280;23188;51.188;16.374;2023-06-14T05:33:53;100329.40;;;14.41;99.99
37304;BME280;23188;51.188;16.374;2023-06-14T05:37:56;100332.91;;;14.76;97.35
37304;BME280;23188;51.188;16.374;2023-06-14T05:41:59;100337.57;;;15.29;96.81
37304;BME280;23188;51.188;16.374;2023-06-14T05:46:03;100347.02;;;15.68;91.76
37304;BME280;23188;51.188;16.374;2023-06-14T05:50:06;100353.76;;;15.81;89.62
37304;BME280;23188;51.188;16.374;2023-06-14T05:54:09;100351.42;;;15.92;90.15
37304;BME280;23188;51.188;16.374;2023-06-14T05:58:12;100352.88;;;15.93;90.50
37304;BME280;23188;51.188;16.374;2023-06-14T06:02:16;100353.60;;;15.97;90.38
37304;BME280;23188;51.188;16.374;2023-06-14T06:06:19;100350.62;;;16.20;91.61
37304;BME280;23188;51.188;16.374;2023-06-14T06:10:25;100351.86;;;16.75;90.48
37304;BME280;23188;51.188;16.374;2023-06-14T06:14:28;100349.77;;;17.15;87.45
37304;BME280;23188;51.188;16.374;2023-06-14T06:18:32;100351.81;;;17.26;84.91
37304;BME280;23188;51.188;16.374;2023-06-14T06:22:35;100354.44;;;17.25;85.04
37304;BME280;23188;51.188;16.374;2023-06-14T06:26:38;100353.70;;;17.25;87.14
37304;BME280;23188;51.188;16.374;2023-06-14T06:30:54;100360.64;;;17.27;86.66
37304;BME280;23188;51.188;16.374;2023-06-14T06:34:58;100356.42;;;17.33;86.41
37304;BME280;23188;51.188;16.374;2023-06-14T06:39:02;100362.19;;;17.46;85.28
37304;BME280;23188;51.188;16.374;2023-06-14T06:43:36;100370.29;;;17.59;83.85
37304;BME280;23188;51.188;16.374;2023-06-14T06:47:41;100375.15;;;17.85;83.40
37304;BME280;23188;51.188;16.374;2023-06-14T06:52:02;100380.73;;;18.36;81.00
37304;BME280;23188;51.188;16.374;2023-06-14T07:05:33;100374.89;;;19.41;75.89
37304;BME280;23188;51.188;16.374;2023-06-14T07:09:40;100378.94;;;19.36;75.62
37304;BME280;23188;51.188;16.374;2023-06-14T07:13:45;100384.35;;;19.45;75.53
37304;BME280;23188;51.188;16.374;2023-06-14T07:17:48;100384.54;;;19.64;75.43
37304;BME280;23188;51.188;16.374;2023-06-14T07:21:51;100386.40;;;19.90;74.06
37304;BME280;23188;51.188;16.374;2023-06-14T07:25:55;100385.74;;;19.97;72.66
37304;BME280;23188;51.188;16.374;2023-06-14T07:29:58;100393.21;;;20.11;73.36
37304;BME280;23188;51.188;16.374;2023-06-14T07:34:03;100395.02;;;20.22;73.17
37304;BME280;23188;51.188;16.374;2023-06-14T07:38:06;100390.83;;;20.44;72.32
37304;BME280;23188;51.188;16.374;2023-06-14T07:42:09;100391.17;;;20.82;71.03
37304;BME280;23188;51.188;16.374;2023-06-14T07:46:14;100389.42;;;21.15;69.58
37304;BME280;23188;51.188;16.374;2023-06-14T07:50:17;100389.05;;;21.34;68.55
37304;BME280;23188;51.188;16.374;2023-06-14T07:54:20;100392.55;;;21.49;69.12
37304;BME280;23188;51.188;16.374;2023-06-14T07:58:27;100394.69;;;21.51;67.22
37304;BME280;23188;51.188;16.374;2023-06-14T08:02:30;100391.05;;;21.34;67.01
37304;BME280;23188;51.188;16.374;2023-06-14T08:06:34;100392.16;;;21.13;67.59
37304;BME280;23188;51.188;16.374;2023-06-14T08:10:37;100391.33;;;21.11;69.74
37304;BME280;23188;51.188;16.374;2023-06-14T08:19:36;100385.90;;;20.85;70.54
37304;BME280;23188;51.188;16.374;2023-06-14T08:23:40;100382.80;;;21.10;70.86
37304;BME280;23188;51.188;16.374;2023-06-14T08:28:10;100382.27;;;21.79;69.86
37304;BME280;23188;51.188;16.374;2023-06-14T08:32:14;100389.43;;;21.98;66.45
37304;BME280;23188;51.188;16.374;2023-06-14T08:36:17;100396.27;;;21.98;65.91
37304;BME280;23188;51.188;16.374;2023-06-14T08:40:39;100393.77;;;21.98;65.03
37304;BME280;23188;51.188;16.374;2023-06-14T08:44:45;100392.11;;;22.31;65.50
37304;BME280;23188;51.188;16.374;2023-06-14T08:48:51;100384.84;;;22.42;64.24
37304;BME280;23188;51.188;16.374;2023-06-14T08:52:57;100387.35;;;22.49;63.94
37304;BME280;23188;51.188;16.374;2023-06-14T08:57:04;100385.00;;;22.35;64.42
37304;BME280;23188;51.188;16.374;2023-06-14T09:01:09;100374.63;;;22.18;64.88
37304;BME280;23188;51.188;16.374;2023-06-14T09:05:17;100370.48;;;22.21;62.79
37304;BME280;23188;51.188;16.374;2023-06-14T09:09:22;100377.65;;;22.31;65.30
37304;BME280;23188;51.188;16.374;2023-06-14T09:13:29;100378.19;;;22.31;64.31
37304;BME280;23188;51.188;16.374;2023-06-14T09:17:34;100375.71;;;22.18;65.68
37304;BME280;23188;51.188;16.374;2023-06-14T09:21:40;100376.25;;;22.43;64.77
37304;BME280;23188;51.188;16.374;2023-06-14T09:25:45;100375.92;;;22.61;64.90
37304;BME280;23188;51.188;16.374;2023-06-14T09:30:19;100373.69;;;22.49;64.30
37304;BME280;23188;51.188;16.374;2023-06-14T09:34:23;100375.13;;;22.19;66.58
37304;BME280;23188;51.188;16.374;2023-06-14T09:38:26;100376.49;;;21.99;66.26
37304;BME280;23188;51.188;16.374;2023-06-14T09:42:30;100371.21;;;22.02;65.68
37304;BME280;23188;51.188;16.374;2023-06-14T09:46:35;100368.74;;;22.23;65.73
37304;BME280;23188;51.188;16.374;2023-06-14T09:50:45;100365.11;;;22.35;65.88
37304;BME280;23188;51.188;16.374;2023-06-14T09:54:52;100361.53;;;22.52;63.50
37304;BME280;23188;51.188;16.374;2023-06-14T09:58:57;100358.45;;;22.61;63.01
37304;BME280;23188;51.188;16.374;2023-06-14T10:03:13;100358.91;;;22.52;64.26
37304;BME280;23188;51.188;16.374;2023-06-14T10:07:19;100360.04;;;22.63;64.78
37304;BME280;23188;51.188;16.374;2023-06-14T10:11:25;100358.90;;;22.76;63.32
37304;BME280;23188;51.188;16.374;2023-06-14T10:15:34;100358.60;;;22.72;63.21
37304;BME280;23188;51.188;16.374;2023-06-14T10:20:03;100359.65;;;22.51;62.67
37304;BME280;23188;51.188;16.374;2023-06-14T10:24:13;100354.65;;;22.42;63.17
37304;BME280;23188;51.188;16.374;2023-06-14T10:28:20;100352.68;;;22.56;62.53
37304;BME280;23188;51.188;16.374;2023-06-14T10:32:26;100349.34;;;22.46;61.89
37304;BME280;23188;51.188;16.374;2023-06-14T10:36:35;100351.71;;;22.25;61.78
37304;BME280;23188;51.188;16.374;2023-06-14T10:40:39;100351.23;;;22.23;62.18
37304;BME280;23188;51.188;16.374;2023-06-14T10:44:50;100351.36;;;22.33;63.50
37304;BME280;23188;51.188;16.374;2023-06-14T10:48:58;100348.39;;;22.33;64.01
37304;BME280;23188;51.188;16.374;2023-06-14T10:53:21;100351.42;;;22.27;65.67
37304;BME280;23188;51.188;16.374;2023-06-14T10:57:25;100351.16;;;22.18;67.90
37304;BME280;23188;51.188;16.374;2023-06-14T11:06:54;100333.95;;;22.46;64.40
37304;BME280;23188;51.188;16.374;2023-06-14T11:11:12;100331.12;;;22.70;63.61
37304;BME280;23188;51.188;16.374;2023-06-14T11:15:16;100333.83;;;22.55;63.30
37304;BME280;23188;51.188;16.374;2023-06-14T11:19:19;100333.55;;;22.33;65.69
37304;BME280;23188;51.188;16.374;2023-06-14T11:23:37;100330.44;;;22.16;66.61
37304;BME280;23188;51.188;16.374;2023-06-14T11:27:43;100329.80;;;22.01;65.54
37304;BME280;23188;51.188;16.374;2023-06-14T11:32:14;100327.52;;;21.90;69.86
37304;BME280;23188;51.188;16.374;2023-06-14T11:36:17;100331.16;;;21.74;71.34
37304;BME280;23188;51.188;16.374;2023-06-14T11:40:38;100327.66;;;21.57;73.10
37304;BME280;23188;51.188;16.374;2023-06-14T11:44:41;100325.61;;;21.42;75.21
37304;BME280;23188;51.188;16.374;2023-06-14T11:48:44;100321.29;;;21.41;71.27
37304;BME280;23188;51.188;16.374;2023-06-14T11:52:55;100324.29;;;21.65;71.48
37304;BME280;23188;51.188;16.374;2023-06-14T11:56:59;100322.32;;;21.98;68.28
37304;BME280;23188;51.188;16.374;2023-06-14T12:01:04;100312.72;;;22.23;65.70
37304;BME280;23188;51.188;16.374;2023-06-14T12:05:09;100308.16;;;22.30;65.42
37304;BME280;23188;51.188;16.374;2023-06-14T12:09:13;100311.73;;;22.28;65.87
37304;BME280;23188;51.188;16.374;2023-06-14T12:13:51;100307.13;;;22.22;67.45
37304;BME280;23188;51.188;16.374;2023-06-14T12:17:54;100297.36;;;22.27;67.81
37304;BME280;23188;51.188;16.374;2023-06-14T12:22:01;100304.90;;;22.07;68.31
37304;BME280;23188;51.188;16.374;2023-06-14T12:26:04;100299.41;;;21.84;68.49
37304;BME280;23188;51.188;16.374;2023-06-14T12:30:17;100300.46;;;21.65;69.59
37304;BME280;23188;51.188;16.374;2023-06-14T12:34:20;100302.17;;;21.49;69.83
37304;BME280;23188;51.188;16.374;2023-06-14T12:38:24;100302.17;;;21.21;72.60
37304;BME280;23188;51.188;16.374;2023-06-14T12:42:30;100298.52;;;20.76;76.58
37304;BME280;23188;51.188;16.374;2023-06-14T12:46:34;100301.21;;;20.45;80.79
37304;BME280;23188;51.188;16.374;2023-06-14T12:50:38;100305.15;;;20.26;83.40
37304;BME280;23188;51.188;16.374;2023-06-14T12:54:42;100290.91;;;20.26;79.95
37304;BME280;23188;51.188;16.374;2023-06-14T12:58:45;100287.65;;;20.43;78.73
37304;BME280;23188;51.188;16.374;2023-06-14T13:02:48;100286.98;;;20.70;78.37
37304;BME280;23188;51.188;16.374;2023-06-14T13:06:55;100284.50;;;21.18;76.67
37304;BME280;23188;51.188;16.374;2023-06-14T13:10:58;100283.13;;;21.71;73.73
37304;BME280;23188;51.188;16.374;2023-06-14T13:15:02;100284.67;;;21.94;70.46
37304;BME280;23188;51.188;16.374;2023-06-14T13:19:05;100295.11;;;21.99;70.27
37304;BME280;23188;51.188;16.374;2023-06-14T13:23:09;100290.56;;;21.99;67.93
37304;BME280;23188;51.188;16.374;2023-06-14T13:27:12;100290.48;;;22.04;64.88
37304;BME280;23188;51.188;16.374;2023-06-14T13:31:17;100281.76;;;22.10;66.56
37304;BME280;23188;51.188;16.374;2023-06-14T13:35:24;100278.14;;;22.13;66.21
37304;BME280;23188;51.188;16.374;2023-06-14T13:39:27;100275.72;;;22.29;65.18
37304;BME280;23188;51.188;16.374;2023-06-14T13:43:42;100275.48;;;22.62;65.73
37304;BME280;23188;51.188;16.374;2023-06-14T13:47:45;100275.59;;;22.64;62.83
37304;BME280;23188;51.188;16.374;2023-06-14T13:51:51;100276.29;;;22.59;65.29
37304;BME280;23188;51.188;16.374;2023-06-14T13:55:54;100280.81;;;22.42;64.78
37304;BME280;23188;51.188;16.374;2023-06-14T14:00:18;100277.09;;;22.24;66.11
37304;BME280;23188;51.188;16.374;2023-06-14T14:04:25;100279.94;;;22.04;67.95
37304;BME280;23188;51.188;16.374;2023-06-14T14:08:31;100280.95;;;21.88;67.82
37304;BME280;23188;51.188;16.374;2023-06-14T14:12:34;100281.31;;;21.84;67.43
37304;BME280;23188;51.188;16.374;2023-06-14T14:16:37;100277.33;;;21.89;66.53
37304;BME280;23188;51.188;16.374;2023-06-14T14:20:41;100277.48;;;21.93;66.07
37304;BME280;23188;51.188;16.374;2023-06-14T14:24:44;100278.27;;;21.96;65.32
37304;BME280;23188;51.188;16.374;2023-06-14T14:28:47;100273.96;;;22.10;65.54
37304;BME280;23188;51.188;16.374;2023-06-14T14:32:56;100270.27;;;22.30;65.17
37304;BME280;23188;51.188;16.374;2023-06-14T14:36:59;100268.36;;;22.49;65.90
37304;BME280;23188;51.188;16.374;2023-06-14T14:41:03;100264.80;;;22.66;64.14
37304;BME280;23188;51.188;16.374;2023-06-14T14:45:12;100263.06;;;22.85;64.08
37304;BME280;23188;51.188;16.374;2023-06-14T14:49:15;100266.20;;;22.98;62.80
37304;BME280;23188;51.188;16.374;2023-06-14T14:53:18;100265.64;;;23.00;61.47
37304;BME280;23188;51.188;16.374;2023-06-14T14:57:21;100270.71;;;23.00;60.62
37304;BME280;23188;51.188;16.374;2023-06-14T15:06:31;100276.45;;;22.41;67.80
37304;BME280;23188;51.188;16.374;2023-06-14T15:10:34;100274.55;;;22.01;70.95
37304;BME280;23188;51.188;16.374;2023-06-14T15:14:37;100276.46;;;21.63;74.38
37304;BME280;23188;51.188;16.374;2023-06-14T15:18:41;100272.26;;;21.37;77.87
37304;BME280;23188;51.188;16.374;2023-06-14T15:22:50;100274.20;;;21.19;78.46
37304;BME280;23188;51.188;16.374;2023-06-14T15:26:53;100274.00;;;21.09;80.20
37304;BME280;23188;51.188;16.374;2023-06-14T15:30:59;100272.60;;;21.18;80.40
37304;BME280;23188;51.188;16.374;2023-06-14T15:35:03;100275.84;;;21.26;80.24
37304;BME280;23188;51.188;16.374;2023-06-14T15:39:07;100280.04;;;21.43;80.83
37304;BME280;23188;51.188;16.374;2023-06-14T15:43:10;100280.80;;;21.46;82.85
37304;BME280;23188;51.188;16.374;2023-06-14T15:47:13;100277.18;;;21.34;82.07
37304;BME280;23188;51.188;16.374;2023-06-14T15:51:16;100280.20;;;21.20;81.82
37304;BME280;23188;51.188;16.374;2023-06-14T15:55:20;100284.37;;;21.16;81.48
37304;BME280;23188;51.188;16.374;2023-06-14T15:59:24;100287.11;;;21.16;82.57
37304;BME280;23188;51.188;16.374;2023-06-14T16:03:27;100284.86;;;21.09;85.34
37304;BME280;23188;51.188;16.374;2023-06-14T16:07:31;100288.59;;;21.04;85.98
37304;BME280;23188;51.188;16.374;2023-06-14T16:11:34;100291.96;;;21.03;85.09
37304;BME280;23188;51.188;16.374;2023-06-14T16:15:39;100286.09;;;20.99;84.85
37304;BME280;23188;51.188;16.374;2023-06-14T16:19:42;100283.83;;;21.02;83.53
37304;BME280;23188;51.188;16.374;2023-06-14T16:23:51;100284.23;;;21.05;86.21
37304;BME280;23188;51.188;16.374;2023-06-14T16:27:54;100283.20;;;21.05;87.83
37304;BME280;23188;51.188;16.374;2023-06-14T16:31:57;100284.85;;;21.04;87.56
37304;BME280;23188;51.188;16.374;2023-06-14T16:36:00;100281.45;;;21.06;86.20
37304;BME280;23188;51.188;16.374;2023-06-14T16:40:04;100284.30;;;21.08;84.65
37304;BME280;23188;51.188;16.374;2023-06-14T16:44:07;100287.07;;;21.06;83.87
37304;BME280;23188;51.188;16.374;2023-06-14T16:48:11;100290.40;;;21.11;83.97
37304;BME280;23188;51.188;16.374;2023-06-14T16:52:14;100296.45;;;21.17;83.60
37304;BME280;23188;51.188;16.374;2023-06-14T16:56:20;100301.10;;;21.22;82.75
37304;BME280;23188;51.188;16.374;2023-06-14T17:00:25;100302.19;;;21.12;82.13
37304;BME280;23188;51.188;16.374;2023-06-14T17:04:46;100300.91;;;20.99;83.17
37304;BME280;23188;51.188;16.374;2023-06-14T17:08:50;100303.02;;;20.94;84.13
37304;BME280;23188;51.188;16.374;2023-06-14T17:13:04;100308.64;;;20.93;83.81
37304;BME280;23188;51.188;16.374;2023-06-14T17:36:41;100326.70;;;20.59;84.63
37304;BME280;23188;51.188;16.374;2023-06-14T17:40:43;100323.44;;;20.40;85.15
37304;BME280;23188;51.188;16.374;2023-06-14T17:44:52;100322.71;;;20.21;86.21
37304;BME280;23188;51.188;16.374;2023-06-14T17:49:00;100326.23;;;20.10;87.75
37304;BME280;23188;51.188;16.374;2023-06-14T17:53:02;100322.70;;;20.02;88.68
37304;BME280;23188;51.188;16.374;2023-06-14T17:57:06;100322.54;;;19.99;89.22
37304;BME280;23188;51.188;16.374;2023-06-14T18:01:08;100320.63;;;20.01;88.84
37304;BME280;23188;51.188;16.374;2023-06-14T18:05:10;100321.56;;;19.99;88.33
37304;BME280;23188;51.188;16.374;2023-06-14T18:09:13;100327.27;;;19.92;89.69
37304;BME280;23188;51.188;16.374;2023-06-14T18:13:22;100326.59;;;19.83;91.33
37304;BME280;23188;51.188;16.374;2023-06-14T18:17:24;100326.35;;;19.67;91.64
37304;BME280;23188;51.188;16.374;2023-06-14T18:21:27;100324.30;;;19.55;91.87
37304;BME280;23188;51.188;16.374;2023-06-14T18:25:28;100327.71;;;19.49;91.90
37304;BME280;23188;51.188;16.374;2023-06-14T18:29:31;100328.17;;;19.48;92.02
37304;BME280;23188;51.188;16.374;2023-06-14T18:33:38;100331.59;;;19.41;92.58
37304;BME280;23188;51.188;16.374;2023-06-14T18:37:42;100332.83;;;19.35;92.12
37304;BME280;23188;51.188;16.374;2023-06-14T18:41:44;100331.36;;;19.29;91.75
37304;BME280;23188;51.188;16.374;2023-06-14T18:45:52;100338.37;;;19.24;91.85
37304;BME280;23188;51.188;16.374;2023-06-14T18:49:54;100340.65;;;19.23;92.43
37304;BME280;23188;51.188;16.374;2023-06-14T18:53:57;100335.59;;;19.20;91.81
37304;BME280;23188;51.188;16.374;2023-06-14T18:58:11;100340.45;;;19.14;91.90
37304;BME280;23188;51.188;16.374;2023-06-14T19:02:14;100340.59;;;19.05;92.10
37304;BME280;23188;51.188;16.374;2023-06-14T19:06:17;100340.96;;;18.92;92.76
37304;BME280;23188;51.188;16.374;2023-06-14T19:10:50;100343.66;;;18.81;94.09
37304;BME280;23188;51.188;16.374;2023-06-14T19:14:52;100346.69;;;18.71;95.18
37304;BME280;23188;51.188;16.374;2023-06-14T19:18:57;100346.48;;;18.60;95.29
37304;BME280;23188;51.188;16.374;2023-06-14T19:23:03;100350.52;;;18.50;95.10
37304;BME280;23188;51.188;16.374;2023-06-14T19:27:07;100348.52;;;18.39;94.67
37304;BME280;23188;51.188;16.374;2023-06-14T19:31:15;100354.35;;;18.28;93.77
37304;BME280;23188;51.188;16.374;2023-06-14T19:35:17;100348.42;;;18.19;92.76
37304;BME280;23188;51.188;16.374;2023-06-14T19:39:23;100350.99;;;18.07;92.35
37304;BME280;23188;51.188;16.374;2023-06-14T19:48:22;100361.00;;;17.80;90.78
37304;BME280;23188;51.188;16.374;2023-06-14T19:52:26;100360.48;;;17.61;87.84
37304;BME280;23188;51.188;16.374;2023-06-14T19:56:28;100360.98;;;17.36;88.56
37304;BME280;23188;51.188;16.374;2023-06-14T20:00:41;100360.58;;;17.10;90.50
37304;BME280;23188;51.188;16.374;2023-06-14T20:04:43;100362.53;;;16.86;91.08
37304;BME280;23188;51.188;16.374;2023-06-14T20:08:56;100364.15;;;16.69;92.18
37304;BME280;23188;51.188;16.374;2023-06-14T20:12:58;100367.45;;;16.51;93.82
37304;BME280;23188;51.188;16.374;2023-06-14T20:17:02;100370.79;;;16.38;95.81
37304;BME280;23188;51.188;16.374;2023-06-14T20:21:04;100376.48;;;16.31;98.73
37304;BME280;23188;51.188;16.374;2023-06-14T20:25:09;100374.08;;;16.36;100.00
37304;BME280;23188;51.188;16.374;2023-06-14T20:29:11;100370.17;;;16.35;100.00
37304;BME280;23188;51.188;16.374;2023-06-14T20:33:15;100371.83;;;16.37;100.00
37304;BME280;23188;51.188;16.374;2023-06-14T20:37:17;100375.71;;;16.42;100.00
37304;BME280;23188;51.188;16.374;2023-06-14T20:41:19;100374.71;;;16.47;100.00
37304;BME280;23188;51.188;16.374;2023-06-14T20:45:22;100378.39;;;16.58;100.00
37304;BME280;23188;51.188;16.374;2023-06-14T20:49:32;100378.15;;;16.62;100.00
37304;BME280;23188;51.188;16.374;2023-06-14T20:53:35;100374.65;;;16.47;100.00
37304;BME280;23188;51.188;16.374;2023-06-14T20:57:39;100376.02;;;16.36;100.00
37304;BME280;23188;51.188;16.374;2023-06-14T21:01:41;100373.50;;;16.36;100.00
37304;BME280;23188;51.188;16.374;2023-06-14T21:05:46;100370.11;;;16.31;100.00
37304;BME280;23188;51.188;16.374;2023-06-14T21:09:48;100374.56;;;16.26;100.00
37304;BME280;23188;51.188;16.374;2023-06-14T21:19:20;100371.20;;;16.08;100.00
37304;BME280;23188;51.188;16.374;2023-06-14T21:23:22;100372.14;;;16.02;100.00
37304;BME280;23188;51.188;16.374;2023-06-14T21:27:24;100374.92;;;16.03;100.00
37304;BME280;23188;51.188;16.374;2023-06-14T21:31:27;100378.06;;;16.07;100.00
37304;BME280;23188;51.188;16.374;2023-06-14T21:35:30;100377.48;;;16.03;99.84
37304;BME280;23188;51.188;16.374;2023-06-14T21:39:33;100379.70;;;16.00;99.95
37304;BME280;23188;51.188;16.374;2023-06-14T21:43:35;100385.33;;;15.97;100.00
37304;BME280;23188;51.188;16.374;2023-06-14T21:47:45;100386.38;;;15.93;100.00
37304;BME280;23188;51.188;16.374;2023-06-14T21:51:49;100387.59;;;15.79;100.00
37304;BME280;23188;51.188;16.374;2023-06-14T21:55:51;100387.19;;;15.70;100.00
37304;BME280;23188;51.188;16.374;2023-06-14T22:00:00;100384.14;;;15.74;100.00
37304;BME280;23188;51.188;16.374;2023-06-14T22:04:04;100379.39;;;15.75;100.00
37304;BME280;23188;51.188;16.374;2023-06-14T22:08:09;100372.73;;;15.68;100.00
37304;BME280;23188;51.188;16.374;2023-06-14T22:12:16;100366.16;;;15.62;100.00